Time;durP1;ratioP1;P1;durP2;ratioP2;P2;SDS_P1;SDS_P2;PMS_P1;PMS_P2;Temp;Humidity;BMP_temperature;BMP_pressure;BME280_temperature;BME280_humidity;BME280_pressure;Samples;Min_cycle;Max_cycle;Signal;HPM_P1;HPM_P2
2021/06/07 00:01:05;;;;;;;7.03;6.43;;;;;;;17.30;100.00;102429.31;1971981;73;33404;-72
2021/06/07 00:06:29;;;;;;;8.10;7.30;;;;;;;17.35;100.00;102431.25;1971966;73;33423;-73
2021/06/07 00:11:56;;;;;;;8.00;7.30;;;;;;;17.37;100.00;102421.97;1971826;73;31055;-72
2021/06/07 00:17:23;;;;;;;8.20;7.50;;;;;;;17.19;100.00;102424.34;1972093;73;31496;-78
2021/06/07 00:22:50;;;;;;;8.00;7.23;;;;;;;17.06;100.00;102426.97;1971849;73;31010;-78
2021/06/07 00:28:15;;;;;;;8.60;7.73;;;;;;;17.15;100.00;102428.03;1971803;73;31003;-72
2021/06/07 00:33:40;;;;;;;7.67;6.97;;;;;;;16.95;100.00;102437.41;1971868;73;32950;-78
2021/06/07 00:39:09;;;;;;;8.87;7.97;;;;;;;16.94;100.00;102435.75;1971801;73;32880;-72
2021/06/07 00:44:33;;;;;;;7.80;7.00;;;;;;;17.02;100.00;102426.71;1971772;73;32965;-72
2021/06/07 00:50:24;;;;;;;8.13;7.03;;;;;;;16.95;100.00;102433.19;2015995;71;30839;-78
2021/06/07 00:55:54;;;;;;;7.00;6.30;;;;;;;17.04;100.00;102433.42;1972026;72;31402;-78
2021/06/07 01:01:21;;;;;;;8.00;7.20;;;;;;;16.77;100.00;102411.42;1972009;73;30987;-72
2021/06/07 01:07:06;;;;;;;7.17;6.47;;;;;;;16.93;100.00;102421.98;2016064;71;30901;-71
2021/06/07 01:12:30;;;;;;;7.03;6.33;;;;;;;16.84;100.00;102423.16;1971866;73;32947;-71
2021/06/07 01:17:55;;;;;;;6.73;6.13;;;;;;;16.88;100.00;102424.82;1971803;73;33034;-77
2021/06/07 01:23:21;;;;;;;6.97;6.37;;;;;;;16.93;100.00;102421.98;1971786;73;32997;-72
2021/06/07 01:28:46;;;;;;;6.93;6.30;;;;;;;16.88;100.00;102415.00;1971982;73;33433;-72
2021/06/07 01:34:11;;;;;;;5.90;5.30;;;;;;;16.92;100.00;102411.88;1971842;73;32917;-72
2021/06/07 01:39:38;;;;;;;6.40;5.83;;;;;;;16.79;100.00;102413.36;1972009;73;33320;-72
2021/06/07 01:45:06;;;;;;;5.97;4.97;;;;;;;16.84;100.00;102409.13;1969688;72;33450;-78
2021/06/07 01:50:52;;;;;;;5.63;5.00;;;;;;;16.68;100.00;102408.94;2013477;71;33501;-77
2021/06/07 01:56:17;;;;;;;6.20;4.87;;;;;;;16.54;100.00;102405.89;1971782;73;33479;-72
2021/06/07 02:01:42;;;;;;;6.13;5.53;;;;;;;16.54;100.00;102399.43;1971874;73;30926;-78
2021/06/07 02:07:15;;;;;;;5.77;5.27;;;;;;;16.64;100.00;102398.87;1971923;72;33339;-78
2021/06/07 02:12:40;;;;;;;6.03;4.97;;;;;;;16.64;100.00;102391.85;1971758;73;32945;-78
2021/06/07 02:18:09;;;;;;;5.40;4.90;;;;;;;16.61;100.00;102391.56;1971787;73;32943;-72
2021/06/07 02:23:35;;;;;;;6.27;4.80;;;;;;;16.50;100.00;102393.56;1971983;73;33497;-72
2021/06/07 02:29:02;;;;;;;6.43;5.90;;;;;;;16.35;100.00;102395.86;1972018;73;33359;-78
2021/06/07 02:34:27;;;;;;;6.73;5.93;;;;;;;16.22;100.00;102399.27;1971975;73;32929;-78
2021/06/07 02:39:52;;;;;;;7.23;6.60;;;;;;;16.51;100.00;102402.82;1971831;73;31011;-77
2021/06/07 02:45:20;;;;;;;8.00;7.13;;;;;;;16.48;100.00;102405.62;1966819;73;32966;-77
2021/06/07 02:50:47;;;;;;;6.83;6.13;;;;;;;16.44;100.00;102407.32;1971995;73;30905;-72
2021/06/07 02:56:13;;;;;;;7.10;6.40;;;;;;;16.49;100.00;102417.68;1971768;73;32884;-78
2021/06/07 03:01:37;;;;;;;8.77;7.33;;;;;;;16.36;100.00;102405.95;1971808;73;33002;-71
2021/06/07 03:07:01;;;;;;;7.87;7.03;;;;;;;16.30;100.00;102406.28;1972012;73;32957;-78
2021/06/07 03:12:26;;;;;;;8.50;7.50;;;;;;;16.35;100.00;102405.67;1971834;73;32892;-78
2021/06/07 03:17:51;;;;;;;7.43;6.33;;;;;;;16.10;100.00;102402.95;1971797;73;32954;-72
2021/06/07 03:23:19;;;;;;;9.70;8.70;;;;;;;16.08;100.00;102402.97;1971826;73;32865;-72
2021/06/07 03:28:44;;;;;;;8.63;7.73;;;;;;;16.17;100.00;102408.28;1971962;73;33469;-78
2021/06/07 03:34:08;;;;;;;7.70;6.93;;;;;;;16.11;100.00;102400.44;1971965;73;33373;-72
2021/06/07 03:39:33;;;;;;;8.73;7.80;;;;;;;16.03;100.00;102394.02;1971970;73;33432;-77
2021/06/07 03:45:00;;;;;;;8.23;7.37;;;;;;;16.09;100.00;102400.45;1970614;73;32942;-77
2021/06/07 03:50:27;;;;;;;9.57;8.60;;;;;;;16.01;100.00;102399.05;1971811;73;31059;-78
2021/06/07 03:55:52;;;;;;;10.87;8.47;;;;;;;15.91;100.00;102397.69;1971807;73;33013;-78
2021/06/07 04:01:16;;;;;;;8.53;7.60;;;;;;;15.93;100.00;102407.48;1933561;73;39584;-78
2021/06/07 04:06:40;;;;;;;11.07;8.23;;;;;;;15.92;100.00;102397.95;1971799;73;32953;-72
2021/06/07 04:12:07;;;;;;;10.03;8.90;;;;;;;15.75;100.00;102387.05;1971959;73;32877;-78
2021/06/07 04:17:31;;;;;;;10.97;9.37;;;;;;;15.86;100.00;102392.09;1971922;73;32867;-72
2021/06/07 04:22:58;;;;;;;11.07;9.37;;;;;;;15.68;100.00;102388.47;1971782;73;32873;-72
2021/06/07 04:28:23;;;;;;;10.93;8.60;;;;;;;15.55;100.00;102389.88;1971809;73;32977;-71
2021/06/07 04:33:47;;;;;;;11.57;9.60;;;;;;;15.65;100.00;102389.89;1971947;73;32933;-72
2021/06/07 04:39:11;;;;;;;13.07;10.60;;;;;;;15.62;100.00;102387.62;1971960;73;33403;-78
2021/06/07 04:44:36;;;;;;;12.53;11.10;;;;;;;15.60;100.00;102396.89;1971990;73;32891;-78
2021/06/07 04:50:02;;;;;;;15.70;11.50;;;;;;;15.62;100.00;102395.19;1971686;73;32955;-77
2021/06/07 04:55:29;;;;;;;14.77;10.93;;;;;;;15.63;100.00;102401.92;1971760;73;32946;-78
2021/06/07 05:00:57;;;;;;;15.30;10.97;;;;;;;15.69;100.00;102405.56;1971973;73;33391;-78
2021/06/07 05:06:21;;;;;;;14.73;11.17;;;;;;;15.64;100.00;102405.56;1971829;73;32937;-78
2021/06/07 05:11:46;;;;;;;18.07;12.57;;;;;;;15.61;100.00;102410.34;1972065;73;33391;-72
2021/06/07 05:17:12;;;;;;;20.30;13.07;;;;;;;15.51;100.00;102415.94;1971863;73;32923;-71
2021/06/07 05:22:38;;;;;;;20.83;14.10;;;;;;;15.39;100.00;102418.44;1971776;73;32918;-72
2021/06/07 05:28:13;;;;;;;22.37;14.07;;;;;;;15.54;100.00;102413.97;1971763;72;32984;-78
2021/06/07 05:33:39;;;;;;;23.30;14.70;;;;;;;15.67;100.00;102420.41;1971892;73;32900;-71
2021/06/07 05:39:05;;;;;;;21.20;13.10;;;;;;;15.77;100.00;102397.98;1972033;72;33376;-78
2021/06/07 05:44:29;;;;;;;21.43;13.43;;;;;;;16.02;100.00;102413.35;1971844;73;32893;-72
2021/06/07 05:49:53;;;;;;;19.80;13.83;;;;;;;15.91;100.00;102413.95;1971990;73;32911;-78
2021/06/07 05:55:19;;;;;;;23.17;13.67;;;;;;;15.90;100.00;102422.63;1971814;72;32946;-72
2021/06/07 06:00:46;;;;;;;19.53;12.77;;;;;;;16.13;100.00;102416.39;1971868;73;33003;-72
2021/06/07 06:06:11;;;;;;;18.17;13.43;;;;;;;16.30;100.00;102435.12;1971985;73;33485;-78
2021/06/07 06:11:35;;;;;;;16.50;11.97;;;;;;;16.33;100.00;102437.95;1971767;73;32917;-72
2021/06/07 06:17:19;;;;;;;17.33;12.53;;;;;;;16.35;100.00;102432.88;2016068;71;32960;-79
2021/06/07 06:22:46;;;;;;;15.97;12.17;;;;;;;16.39;100.00;102443.80;1972029;73;33384;-79
2021/06/07 06:28:12;;;;;;;15.20;10.30;;;;;;;16.34;100.00;102442.44;1972127;72;33428;-72
2021/06/07 06:33:37;;;;;;;14.50;10.43;;;;;;;16.30;100.00;102438.53;1971992;73;33367;-79
2021/06/07 06:39:02;;;;;;;14.27;11.23;;;;;;;16.49;100.00;102436.76;1971768;73;33019;-72
2021/06/07 06:44:27;;;;;;;17.30;11.60;;;;;;;16.36;100.00;102434.56;1971948;73;33473;-78
2021/06/07 06:49:51;;;;;;;14.80;10.60;;;;;;;16.53;100.00;102444.03;1972095;73;32994;-72
2021/06/07 06:55:16;;;;;;;13.30;10.77;;;;;;;16.48;100.00;102444.05;1972019;73;33413;-73
2021/06/07 07:00:41;;;;;;;11.90;9.70;;;;;;;16.38;100.00;102445.80;1972013;73;32889;-78
2021/06/07 07:06:07;;;;;;;11.17;9.50;;;;;;;16.34;100.00;102441.84;1971813;73;33005;-74
2021/06/07 07:11:31;;;;;;;10.43;8.73;;;;;;;16.44;100.00;102438.17;1972011;73;33383;-75
2021/06/07 07:16:58;;;;;;;11.13;9.50;;;;;;;16.46;100.00;102442.11;1971983;73;33456;-78
2021/06/07 07:22:24;;;;;;;13.23;9.97;;;;;;;16.51;100.00;102440.69;1971971;73;33409;-73
2021/06/07 07:27:49;;;;;;;12.77;11.03;;;;;;;16.60;100.00;102446.83;1971864;73;32902;-73
2021/06/07 07:33:20;;;;;;;12.37;10.03;;;;;;;16.67;100.00;102445.98;1971777;73;32898;-76
2021/06/07 07:38:45;;;;;;;11.10;9.80;;;;;;;16.78;100.00;102447.59;1971938;73;33401;-82
2021/06/07 07:44:10;;;;;;;12.47;11.17;;;;;;;16.86;100.00;102453.77;1971955;73;33004;-76
2021/06/07 07:49:52;;;;;;;10.23;9.23;;;;;;;17.03;100.00;102455.03;2016184;71;32852;-73
2021/06/07 07:55:21;;;;;;;11.57;9.97;;;;;;;17.00;100.00;102456.19;1971897;73;32968;-73
2021/06/07 08:00:47;;;;;;;10.43;9.37;;;;;;;16.94;100.00;102448.38;1972117;73;31437;-73
2021/06/07 08:06:12;;;;;;;10.80;9.70;;;;;;;17.01;100.00;102448.89;1971808;73;32977;-73
2021/06/07 08:11:36;;;;;;;10.00;9.00;;;;;;;17.12;100.00;102451.05;1972052;73;33452;-79
2021/06/07 08:17:01;;;;;;;10.67;9.57;;;;;;;17.08;100.00;102447.99;1971805;73;32881;-73
2021/06/07 08:22:25;;;;;;;8.80;7.90;;;;;;;17.36;100.00;102449.78;1972029;73;33569;-74
2021/06/07 08:27:50;;;;;;;9.60;8.20;;;;;;;17.59;100.00;102451.87;1971836;73;31045;-80
2021/06/07 08:33:16;;;;;;;9.27;7.93;;;;;;;18.47;100.00;102449.59;1971984;72;31550;-80
2021/06/07 08:38:42;;;;;;;9.77;8.73;;;;;;;18.23;100.00;102457.16;1971828;73;30943;-74
2021/06/07 08:44:08;;;;;;;9.30;8.33;;;;;;;17.82;100.00;102460.95;1971977;73;33425;-75
2021/06/07 08:49:32;;;;;;;8.70;7.73;;;;;;;17.88;100.00;102456.13;1971819;73;32973;-75
2021/06/07 08:54:56;;;;;;;8.27;6.97;;;;;;;17.83;100.00;102468.27;1971911;73;30917;-78
2021/06/07 09:00:23;;;;;;;8.53;7.07;;;;;;;18.27;100.00;102458.83;1971905;73;33389;-75
2021/06/07 09:05:56;;;;;;;8.57;7.10;;;;;;;18.53;100.00;102451.78;1971757;73;31001;-80
2021/06/07 09:11:21;;;;;;;7.77;6.97;;;;;;;18.86;100.00;102441.52;1971765;73;30928;-79
2021/06/07 09:16:46;;;;;;;8.50;7.40;;;;;;;18.37;100.00;102445.47;1971869;73;31110;-78
2021/06/07 09:22:29;;;;;;;8.33;7.03;;;;;;;18.73;100.00;102447.89;1972002;73;30982;-80
2021/06/07 09:28:12;;;;;;;8.00;7.20;;;;;;;18.58;100.00;102452.56;1972043;73;30934;-75
2021/06/07 09:33:43;;;;;;;7.10;6.40;;;;;;;18.48;100.00;102454.05;1938312;74;33039;-75
2021/06/07 09:39:18;;;;;;;7.40;6.60;;;;;;;18.77;100.00;102460.22;1972110;73;31022;-72
2021/06/07 09:44:58;;;;;;;7.67;6.43;;;;;;;18.89;100.00;102466.25;1972047;73;31012;-79
2021/06/07 09:50:24;;;;;;;7.20;6.20;;;;;;;18.76;100.00;102475.43;1971938;72;33381;-74
2021/06/07 09:55:50;;;;;;;8.00;6.03;;;;;;;19.20;100.00;102464.69;1971878;73;30932;-74
2021/06/07 10:01:28;;;;;;;8.67;6.97;;;;;;;19.20;100.00;102470.89;1972095;73;30995;-81
2021/06/07 10:06:56;;;;;;;8.07;7.03;;;;;;;19.15;100.00;102480.25;1951998;73;31593;-74
2021/06/07 10:12:26;;;;;;;5.63;5.00;;;;;;;19.40;100.00;102472.83;1971999;73;31442;-74
2021/06/07 10:17:51;;;;;;;5.10;4.67;;;;;;;19.67;100.00;102462.28;1971831;73;31018;-74
2021/06/07 10:23:16;;;;;;;5.13;4.63;;;;;;;19.85;100.00;102452.92;1971923;73;30968;-82
2021/06/07 10:28:44;;;;;;;5.23;4.73;;;;;;;19.99;100.00;102448.73;1971840;73;30936;-81
2021/06/07 10:34:11;;;;;;;5.90;5.40;;;;;;;19.96;100.00;102455.00;1971968;73;31044;-80
2021/06/07 10:39:40;;;;;;;4.30;4.00;;;;;;;19.98;100.00;102453.53;1973086;72;31038;-80
2021/06/07 10:45:34;;;;;;;4.77;4.33;;;;;;;20.23;100.00;102446.59;1963881;73;30946;-82
2021/06/07 10:51:21;;;;;;;5.80;4.47;;;;;;;20.16;100.00;102443.90;2016110;71;30923;-73
2021/06/07 10:56:45;;;;;;;3.43;3.13;;;;;;;20.03;100.00;102443.30;1972026;73;31417;-80
2021/06/07 11:02:16;;;;;;;5.37;3.73;;;;;;;20.37;100.00;102436.16;1971795;73;30942;-82
2021/06/07 11:07:43;;;;;;;4.40;4.00;;;;;;;20.34;100.00;102435.95;1972030;73;31507;-72
2021/06/07 11:13:19;;;;;;;3.30;3.00;;;;;;;20.48;100.00;102414.22;1972032;73;31130;-80
2021/06/07 11:18:59;;;;;;;2.87;2.67;;;;;;;20.62;100.00;102412.81;1972286;73;31491;-82
2021/06/07 11:24:30;;;;;;;2.20;2.10;;;;;;;20.98;100.00;102406.61;1972114;73;30937;-83
2021/06/07 11:30:12;;;;;;;2.07;1.97;;;;;;;20.86;100.00;102397.85;1971794;73;30928;-74
2021/06/07 11:35:44;;;;;;;2.13;2.00;;;;;;;20.54;100.00;102398.83;1972039;73;31422;-75
2021/06/07 11:41:44;;;;;;;2.17;1.97;;;;;;;20.59;100.00;102396.48;1973218;73;30915;-73
2021/06/07 11:47:10;;;;;;;1.60;1.50;;;;;;;21.07;100.00;102388.32;1960441;71;30950;-75
2021/06/07 11:52:52;;;;;;;2.22;1.90;;;;;;;21.11;100.00;102393.02;1956450;73;27980;-75
2021/06/07 11:58:26;;;;;;;1.40;1.30;;;;;;;21.44;100.00;102378.66;1951881;73;31010;-75
2021/06/07 12:03:51;;;;;;;1.43;1.33;;;;;;;21.33;100.00;102379.52;1972186;73;30915;-81
2021/06/07 12:09:18;;;;;;;1.50;1.40;;;;;;;21.50;100.00;102365.50;1972100;73;31393;-74
2021/06/07 12:14:45;;;;;;;1.80;1.70;;;;;;;21.31;100.00;102364.85;1971815;73;30894;-76
2021/06/07 12:20:12;;;;;;;1.63;1.53;;;;;;;21.32;100.00;102367.37;1971839;72;30975;-76
2021/06/07 12:28:16;;;;;;;1.30;1.20;;;;;;;21.30;100.00;102368.28;1972141;73;33357;-80
2021/06/07 12:31:11;;;;;;;1.40;1.30;;;;;;;21.76;100.00;102376.98;1971881;73;31467;-74
2021/06/07 12:36:35;;;;;;;1.07;1.03;;;;;;;21.84;100.00;102363.45;1972488;73;31057;-74
2021/06/07 12:42:00;;;;;;;1.37;1.27;;;;;;;21.97;100.00;102360.30;1972576;73;31388;-81
2021/06/07 12:47:27;;;;;;;1.40;1.30;;;;;;;22.14;100.00;102357.55;1972586;73;31014;-74
2021/06/07 12:53:01;;;;;;;1.40;1.30;;;;;;;22.24;100.00;102357.27;1972072;73;31427;-74
2021/06/07 12:58:29;;;;;;;3.37;1.77;;;;;;;22.12;100.00;102342.91;1972217;73;30909;-82
2021/06/07 13:03:56;;;;;;;1.60;1.00;;;;;;;22.17;100.00;102346.98;1972090;73;31452;-74
2021/06/07 13:09:36;;;;;;;1.50;1.40;;;;;;;22.48;100.00;102349.16;1971862;73;30919;-82
2021/06/07 13:15:02;;;;;;;1.20;1.10;;;;;;;22.55;100.00;102348.08;1972092;73;30904;-82
2021/06/07 13:20:27;;;;;;;1.07;0.85;;;;;;;22.63;100.00;102324.59;1971836;72;31503;-83
2021/06/07 13:25:52;;;;;;;1.77;1.12;;;;;;;22.95;100.00;102338.08;1972139;73;30891;-82
2021/06/07 13:31:17;;;;;;;1.12;1.02;;;;;;;22.98;100.00;102333.98;1971841;73;30955;-74
2021/06/07 13:36:45;;;;;;;1.10;1.00;;;;;;;22.77;100.00;102326.48;1972255;72;31357;-75
2021/06/07 13:42:12;;;;;;;1.00;0.90;;;;;;;22.65;100.00;102336.45;1972428;73;30886;-83
2021/06/07 13:47:56;;;;;;;1.00;1.00;;;;;;;22.87;100.00;102329.00;1972166;73;31374;-85
2021/06/07 13:53:22;;;;;;;0.98;0.93;;;;;;;22.83;100.00;102321.75;1971999;73;30969;-81
2021/06/07 13:58:49;;;;;;;1.32;1.12;;;;;;;22.96;100.00;102329.84;1971953;73;30919;-80
2021/06/07 14:04:15;;;;;;;1.47;1.20;;;;;;;23.17;100.00;102312.40;1971921;73;31055;-84
2021/06/07 14:09:59;;;;;;;1.42;1.10;;;;;;;23.27;100.00;102313.48;2016262;71;30902;-84
2021/06/07 14:15:42;;;;;;;1.35;0.80;;;;;;;23.24;100.00;102309.88;2016373;71;30828;-80
2021/06/07 14:21:10;;;;;;;1.57;1.32;;;;;;;23.12;100.00;102305.48;1972153;73;30905;-75
2021/06/07 14:26:34;;;;;;;1.27;1.17;;;;;;;23.17;100.00;102300.22;1972112;73;31009;-81
2021/06/07 14:31:59;;;;;;;1.40;1.17;;;;;;;23.11;100.00;102307.48;1972127;73;30995;-75
2021/06/07 14:37:23;;;;;;;1.45;1.35;;;;;;;23.18;100.00;102297.64;1972107;73;30909;-81
2021/06/07 14:42:47;;;;;;;1.60;1.50;;;;;;;23.06;100.00;102294.08;1972013;73;31449;-75
2021/06/07 14:48:12;;;;;;;1.50;1.40;;;;;;;22.99;100.00;102283.81;1972158;73;30937;-75
2021/06/07 14:53:37;;;;;;;1.77;1.67;;;;;;;23.34;100.00;102288.27;1972131;73;30984;-81
2021/06/07 14:59:08;;;;;;;3.33;2.02;;;;;;;23.31;100.00;102291.78;1972131;73;30932;-74
2021/06/07 15:04:33;;;;;;;2.35;1.90;;;;;;;23.20;100.00;102279.70;1972237;73;31487;-75
2021/06/07 15:09:57;;;;;;;2.30;2.10;;;;;;;23.14;100.00;102277.06;1972496;73;31492;-81
2021/06/07 15:15:22;;;;;;;3.45;1.80;;;;;;;23.29;100.00;102267.17;1972204;73;33419;-75
2021/06/07 15:20:46;;;;;;;2.25;2.08;;;;;;;23.17;100.00;102271.88;1972069;73;31015;-82
2021/06/07 15:26:11;;;;;;;2.35;1.80;;;;;;;22.97;100.00;102262.91;1971959;72;30976;-75
2021/06/07 15:31:37;;;;;;;1.98;1.75;;;;;;;23.14;100.00;102264.30;1971872;73;30903;-74
2021/06/07 15:37:01;;;;;;;2.22;1.60;;;;;;;23.15;100.00;102258.02;1971996;73;30929;-79
2021/06/07 15:42:27;;;;;;;1.70;1.60;;;;;;;23.22;100.00;102260.36;1972149;73;30997;-74
2021/06/07 15:47:52;;;;;;;1.60;1.50;;;;;;;23.19;100.00;102244.03;1972092;73;30911;-81
2021/06/07 15:53:23;;;;;;;1.72;1.50;;;;;;;23.32;100.00;102248.05;1972256;73;30978;-81
2021/06/07 15:58:48;;;;;;;3.55;1.65;;;;;;;23.19;100.00;102248.28;1972045;73;30907;-75
2021/06/07 16:04:15;;;;;;;1.72;1.35;;;;;;;23.00;100.00;102240.97;1972385;73;31451;-81
2021/06/07 16:09:41;;;;;;;1.60;1.50;;;;;;;23.09;100.00;102238.95;1971900;73;30994;-81
2021/06/07 16:15:10;;;;;;;1.72;1.60;;;;;;;22.90;100.00;102239.89;1971906;73;30903;-80
2021/06/07 16:26:24;;;;;;;2.62;1.30;;;;;;;22.80;100.00;102241.67;1971918;73;30932;-75
2021/06/07 16:31:51;;;;;;;3.12;1.40;;;;;;;23.00;100.00;102235.30;1972100;73;31007;-77
2021/06/07 16:37:15;;;;;;;2.77;1.45;;;;;;;23.06;100.00;102238.80;1971801;73;30969;-76
2021/06/07 16:42:40;;;;;;;3.17;1.72;;;;;;;23.00;100.00;102239.55;1972037;73;31410;-80
2021/06/07 16:48:06;;;;;;;2.72;1.92;;;;;;;22.97;100.00;102243.07;1971798;73;30896;-76
2021/06/07 16:53:51;;;;;;;2.30;1.65;;;;;;;22.96;100.00;102235.73;2016003;71;30837;-76
2021/06/07 16:59:16;;;;;;;2.85;1.30;;;;;;;22.85;100.00;102229.34;1972319;73;31435;-84
2021/06/07 17:04:41;;;;;;;1.70;1.40;;;;;;;22.87;100.00;102229.81;1972015;73;31390;-76
2021/06/07 17:10:08;;;;;;;0.88;0.88;;;;;;;22.88;100.00;102232.33;1971878;73;30990;-81
2021/06/07 17:15:39;;;;;;;1.27;1.15;;;;;;;22.82;100.00;102232.23;1972040;73;31491;-82
2021/06/07 17:21:06;;;;;;;1.40;1.30;;;;;;;22.92;100.00;102231.06;1971819;73;30980;-81
2021/06/07 17:26:30;;;;;;;1.75;1.10;;;;;;;22.73;100.00;102231.98;1972098;73;31360;-80
2021/06/07 17:31:54;;;;;;;1.10;0.97;;;;;;;22.68;100.00;102232.38;1971913;72;30895;-74
2021/06/07 17:37:19;;;;;;;1.60;1.50;;;;;;;22.85;100.00;102233.59;1971774;73;30937;-79
2021/06/07 17:42:44;;;;;;;1.47;1.37;;;;;;;22.63;100.00;102226.87;1971793;73;30934;-78
2021/06/07 17:48:10;;;;;;;1.67;1.43;;;;;;;22.45;100.00;102237.97;1971814;73;30971;-76
2021/06/07 17:53:34;;;;;;;1.97;1.77;;;;;;;22.41;100.00;102243.21;1971817;73;31030;-74
2021/06/07 17:58:58;;;;;;;1.77;1.50;;;;;;;22.37;100.00;102244.46;1971750;73;31007;-75
2021/06/07 18:04:23;;;;;;;1.50;1.40;;;;;;;22.32;100.00;102257.36;1971949;73;31042;-76
2021/06/07 18:09:47;;;;;;;2.12;1.60;;;;;;;22.23;100.00;102260.75;1971801;73;30990;-73
2021/06/07 18:15:13;;;;;;;1.77;1.60;;;;;;;22.21;100.00;102261.65;1971815;73;30931;-75
2021/06/07 18:20:38;;;;;;;2.25;1.92;;;;;;;22.14;100.00;102258.48;1972003;73;31496;-73
2021/06/07 18:26:03;;;;;;;1.90;1.72;;;;;;;22.07;100.00;102257.56;1971839;73;30988;-77
2021/06/07 18:31:29;;;;;;;2.00;1.67;;;;;;;21.99;100.00;102258.95;1972058;73;31439;-75
2021/06/07 18:36:54;;;;;;;2.50;1.75;;;;;;;21.94;100.00;102274.08;1972022;73;30933;-78
2021/06/07 18:42:19;;;;;;;1.80;1.70;;;;;;;21.86;100.00;102264.12;1971952;72;33445;-74
2021/06/07 18:47:43;;;;;;;2.97;2.10;;;;;;;21.82;100.00;102268.19;1972032;73;31459;-78
2021/06/07 18:53:08;;;;;;;2.65;2.25;;;;;;;21.77;100.00;102268.33;1971780;73;30929;-76
2021/06/07 18:58:35;;;;;;;1.93;1.83;;;;;;;21.72;100.00;102263.64;1972008;73;31456;-74
2021/06/07 19:03:58;;;;;;;2.83;2.07;;;;;;;21.54;100.00;102267.55;1971788;73;30890;-74
2021/06/07 19:09:23;;;;;;;2.30;2.10;;;;;;;21.54;100.00;102257.66;1971848;73;31077;-78
2021/06/07 19:14:51;;;;;;;2.70;2.00;;;;;;;21.45;100.00;102258.77;1972225;73;30966;-74
2021/06/07 19:20:34;;;;;;;4.13;2.30;;;;;;;21.42;100.00;102257.43;2016059;71;30830;-74
2021/06/07 19:25:59;;;;;;;2.67;2.42;;;;;;;21.49;100.00;102261.19;1972278;73;30980;-72
2021/06/07 19:31:24;;;;;;;2.20;1.97;;;;;;;21.40;100.00;102269.63;1971999;73;31425;-74
2021/06/07 19:36:48;;;;;;;3.03;2.50;;;;;;;21.27;100.00;102267.14;1972154;73;31533;-73
2021/06/07 19:42:13;;;;;;;2.40;2.20;;;;;;;21.15;100.00;102276.80;1972290;73;31462;-73
2021/06/07 19:47:57;;;;;;;3.40;2.37;;;;;;;20.96;100.00;102265.42;2016059;71;30854;-75
2021/06/07 19:53:23;;;;;;;2.43;2.23;;;;;;;20.83;100.00;102269.41;1972050;73;31510;-77
2021/06/07 19:58:54;;;;;;;4.87;2.87;;;;;;;20.73;100.00;102275.29;1971898;73;30934;-76
2021/06/07 20:04:39;;;;;;;2.60;2.40;;;;;;;20.65;100.00;102278.88;2016043;71;30942;-73
2021/06/07 20:10:10;;;;;;;2.67;2.47;;;;;;;20.54;100.00;102290.73;1971904;73;30937;-75
2021/06/07 20:15:35;;;;;;;2.37;2.17;;;;;;;20.38;100.00;102293.89;1971937;73;31008;-75
2021/06/07 20:21:01;;;;;;;3.70;2.40;;;;;;;20.15;100.00;102294.92;1971841;73;31019;-76
2021/06/07 20:26:25;;;;;;;3.50;2.60;;;;;;;20.09;100.00;102298.18;1971999;73;31506;-73
2021/06/07 20:31:50;;;;;;;3.77;2.70;;;;;;;20.04;100.00;102296.87;1971977;73;31456;-73
2021/06/07 20:37:14;;;;;;;3.50;3.07;;;;;;;19.92;100.00;102306.70;1971913;73;30940;-73
2021/06/07 20:42:39;;;;;;;2.60;2.40;;;;;;;19.77;100.00;102314.05;1971934;73;30934;-78
2021/06/07 20:48:07;;;;;;;4.87;3.33;;;;;;;19.79;100.00;102316.56;1972070;73;33384;-76
2021/06/07 20:53:33;;;;;;;4.30;3.00;;;;;;;19.42;100.00;102318.36;1972002;73;31020;-73
2021/06/07 20:59:03;;;;;;;3.63;3.03;;;;;;;19.18;100.00;102323.84;1972060;73;33477;-72
2021/06/07 21:04:27;;;;;;;3.37;3.03;;;;;;;18.93;100.00;102325.11;1971907;72;30938;-76
2021/06/07 21:09:54;;;;;;;3.93;3.20;;;;;;;19.04;100.00;102316.74;1972073;73;31038;-76
2021/06/07 21:15:25;;;;;;;3.73;3.43;;;;;;;19.22;100.00;102317.86;1971851;73;31016;-75
2021/06/07 21:20:49;;;;;;;4.20;3.73;;;;;;;19.16;100.00;102317.13;1971988;73;33355;-78
2021/06/07 21:26:13;;;;;;;4.77;4.27;;;;;;;19.03;100.00;102322.98;1971787;73;30938;-78
2021/06/07 21:31:37;;;;;;;4.90;4.03;;;;;;;18.90;100.00;102320.09;1972137;73;31041;-78
2021/06/07 21:37:03;;;;;;;4.60;3.90;;;;;;;18.96;100.00;102316.88;1971914;73;30946;-75
2021/06/07 21:42:27;;;;;;;4.03;3.63;;;;;;;18.88;100.00;102313.91;1971964;73;30927;-75
2021/06/07 21:47:51;;;;;;;4.73;4.23;;;;;;;18.97;100.00;102308.70;1971848;73;30949;-78
2021/06/07 21:53:15;;;;;;;4.30;3.90;;;;;;;18.79;100.00;102310.95;1971777;72;31015;-75
2021/06/07 21:58:40;;;;;;;3.83;3.47;;;;;;;18.59;100.00;102302.83;1971944;73;30944;-75
2021/06/07 22:04:23;;;;;;;5.00;4.27;;;;;;;18.53;100.00;102311.06;2016118;71;30921;-78
2021/06/07 22:09:47;;;;;;;5.20;4.37;;;;;;;18.30;100.00;102305.74;1972094;73;31013;-75
2021/06/07 22:15:14;;;;;;;4.90;4.50;;;;;;;18.27;100.00;102303.51;1971951;73;30941;-76
2021/06/07 22:20:58;;;;;;;5.90;5.27;;;;;;;18.33;100.00;102309.91;2016088;71;30862;-76
2021/06/07 22:26:22;;;;;;;7.67;5.00;;;;;;;18.37;100.00;102311.83;1971755;73;30946;-75
2021/06/07 22:31:47;;;;;;;5.13;4.63;;;;;;;18.37;100.00;102321.67;1972058;73;31423;-78
2021/06/07 22:37:11;;;;;;;5.33;4.83;;;;;;;18.25;100.00;102320.44;1971788;73;30976;-75
2021/06/07 22:42:35;;;;;;;5.73;5.13;;;;;;;18.19;100.00;102320.50;1972018;73;31010;-78
2021/06/07 22:47:58;;;;;;;6.27;5.67;;;;;;;18.01;100.00;102332.53;1972043;73;31503;-77
2021/06/07 22:53:23;;;;;;;7.23;5.50;;;;;;;18.05;100.00;102335.04;1971823;73;30999;-77
2021/06/07 22:58:47;;;;;;;6.57;5.80;;;;;;;17.81;100.00;102339.80;1972065;73;31459;-78
2021/06/07 23:04:15;;;;;;;6.30;5.40;;;;;;;17.71;100.00;102340.73;1972028;73;33032;-77
2021/06/07 23:09:38;;;;;;;8.17;5.50;;;;;;;17.85;100.00;102342.28;1971893;73;30925;-75
2021/06/07 23:15:07;;;;;;;6.70;6.00;;;;;;;17.73;100.00;102355.91;1971861;73;31089;-75
2021/06/07 23:20:32;;;;;;;6.03;5.40;;;;;;;17.64;100.00;102346.44;1971859;73;30931;-75
2021/06/07 23:25:57;;;;;;;9.23;5.87;;;;;;;17.59;100.00;102351.55;1972028;73;31432;-76
2021/06/07 23:31:22;;;;;;;7.20;6.50;;;;;;;17.62;100.00;102358.00;1971819;73;33056;-78
2021/06/07 23:37:06;;;;;;;6.40;5.50;;;;;;;17.42;100.00;102355.89;2016364;71;31409;-77
2021/06/07 23:42:30;;;;;;;7.67;5.70;;;;;;;17.47;100.00;102358.66;1971941;73;30930;-77
2021/06/07 23:47:54;;;;;;;8.23;5.83;;;;;;;17.37;100.00;102351.16;1972034;73;33348;-75
2021/06/07 23:53:20;;;;;;;8.37;5.87;;;;;;;17.20;100.00;102360.60;1971846;73;30902;-77
2021/06/07 23:58:44;;;;;;;7.13;5.57;;;;;;;17.11;100.00;102357.58;1972024;73;30951;-77
